createdAt,value
2019-01-16T00:02:42.596Z,96.24
2019-01-16T00:05:32.562Z,96.40
2019-01-16T00:08:21.727Z,96.10
2019-01-16T00:11:08.864Z,95.70
2019-01-16T00:13:58.194Z,95.95
2019-01-16T00:16:47.317Z,95.87
2019-01-16T00:19:36.453Z,95.73
2019-01-16T00:22:25.916Z,95.52
2019-01-16T00:25:15.202Z,95.43
2019-01-16T00:28:04.259Z,95.31
2019-01-16T00:30:53.170Z,95.50
2019-01-16T00:33:42.339Z,95.23
2019-01-16T00:36:31.525Z,95.45
2019-01-16T00:39:20.820Z,95.73
2019-01-16T00:42:10.221Z,95.82
2019-01-16T00:44:59.995Z,95.11
2019-01-16T00:47:49.430Z,95.56
2019-01-16T00:50:39.721Z,95.35
2019-01-16T00:53:29.034Z,94.80
2019-01-16T00:56:18.056Z,94.85
2019-01-16T00:59:07.282Z,94.77
2019-01-16T01:01:56.346Z,94.63
2019-01-16T01:04:45.598Z,94.26
2019-01-16T01:07:34.677Z,94.29
2019-01-16T01:10:25.268Z,94.04
2019-01-16T01:13:14.171Z,93.89
2019-01-16T01:16:03.369Z,93.46
2019-01-16T01:18:52.485Z,93.78
2019-01-16T01:21:41.562Z,93.21
2019-01-16T01:24:30.640Z,93.15
2019-01-16T01:27:20.044Z,93.57
2019-01-16T01:30:09.132Z,93.49
2019-01-16T01:32:58.163Z,93.18
2019-01-16T01:35:47.108Z,93.25
2019-01-16T01:38:36.345Z,93.53
2019-01-16T01:41:25.278Z,93.66
2019-01-16T01:44:14.329Z,94.39
2019-01-16T01:47:03.360Z,94.45
2019-01-16T01:49:52.483Z,95.30
2019-01-16T01:52:41.504Z,95.79
2019-01-16T01:55:30.991Z,96.40
2019-01-16T01:58:07.592Z,96.96
2019-01-16T02:00:57.099Z,97.17
2019-01-16T02:03:46.425Z,97.31
2019-01-16T02:06:35.430Z,97.56
2019-01-16T02:12:29.485Z,98.16
2019-01-16T02:15:18.322Z,98.37
2019-01-16T02:18:07.349Z,97.82
2019-01-16T02:20:56.442Z,97.99
2019-01-16T02:23:45.464Z,98.43
2019-01-16T02:26:35.539Z,98.29
2019-01-16T02:29:24.722Z,98.14
2019-01-16T02:32:31.215Z,98.87
2019-01-16T02:35:20.372Z,98.87
2019-01-16T02:38:09.783Z,98.88
2019-01-16T02:41:10.925Z,99.99
2019-01-16T02:44:14.097Z,100.00
2019-01-16T02:46:55.866Z,100.00
2019-01-16T02:50:04.328Z,100.00
2019-01-16T02:52:43.820Z,100.00
2019-01-16T02:55:33.342Z,100.00
2019-01-16T02:58:22.995Z,100.00
2019-01-16T03:01:12.289Z,100.00
2019-01-16T03:04:02.477Z,100.00
2019-01-16T03:06:51.555Z,100.00
2019-01-16T03:09:40.533Z,100.00
2019-01-16T03:12:29.577Z,100.00
2019-01-16T03:15:18.637Z,100.00
2019-01-16T03:18:07.459Z,100.00
2019-01-16T03:20:56.922Z,100.00
2019-01-16T03:23:46.174Z,100.00
2019-01-16T03:26:26.899Z,100.00
2019-01-16T03:29:15.966Z,100.00
2019-01-16T03:32:05.217Z,100.00
2019-01-16T03:34:55.675Z,100.00
2019-01-16T03:37:46.190Z,100.00
2019-01-16T03:40:35.668Z,100.00
2019-01-16T03:43:25.462Z,100.00
2019-01-16T03:46:14.482Z,100.00
2019-01-16T03:49:03.563Z,100.00
2019-01-16T03:51:52.666Z,100.00
2019-01-16T03:54:42.007Z,100.00
2019-01-16T03:57:31.334Z,100.00
2019-01-16T04:00:20.423Z,100.00
2019-01-16T04:03:09.339Z,100.00
2019-01-16T04:05:58.941Z,100.00
2019-01-16T04:08:47.982Z,100.00
2019-01-16T04:11:37.236Z,100.00
2019-01-16T04:14:26.301Z,100.00
2019-01-16T04:17:15.238Z,100.00
2019-01-16T04:20:05.352Z,100.00
2019-01-16T04:22:44.930Z,100.00
2019-01-16T04:25:34.173Z,100.00
2019-01-16T04:28:23.919Z,100.00
2019-01-16T04:31:13.248Z,100.00
2019-01-16T04:34:02.597Z,100.00
2019-01-16T04:36:52.092Z,100.00
2019-01-16T04:39:42.568Z,100.00
2019-01-16T04:42:31.598Z,100.00
2019-01-16T04:47:58.051Z,100.00
2019-01-16T04:50:47.842Z,100.00
2019-01-16T04:53:38.518Z,100.00
2019-01-16T04:56:27.588Z,100.00
2019-01-16T04:59:16.530Z,100.00
2019-01-16T05:02:05.670Z,100.00
2019-01-16T05:04:54.834Z,100.00
2019-01-16T05:07:44.256Z,100.00
2019-01-16T05:10:33.194Z,100.00
2019-01-16T05:13:22.491Z,100.00
2019-01-16T05:16:11.471Z,100.00
2019-01-16T05:19:00.626Z,100.00
2019-01-16T05:21:49.820Z,100.00
2019-01-16T05:24:39.203Z,100.00
2019-01-16T05:27:28.442Z,100.00
2019-01-16T05:30:17.828Z,100.00
2019-01-16T05:33:07.047Z,100.00
2019-01-16T05:35:57.527Z,100.00
2019-01-16T05:38:46.484Z,100.00
2019-01-16T05:41:35.618Z,100.00
2019-01-16T05:44:24.620Z,100.00
2019-01-16T05:47:13.511Z,100.00
2019-01-16T05:50:02.424Z,100.00
2019-01-16T05:52:51.384Z,100.00
2019-01-16T05:55:40.262Z,100.00
2019-01-16T05:58:29.711Z,100.00
2019-01-16T06:01:19.110Z,100.00
2019-01-16T06:04:08.479Z,100.00
2019-01-16T06:06:57.900Z,100.00
2019-01-16T06:09:47.664Z,100.00
2019-01-16T06:12:37.004Z,100.00
2019-01-16T06:15:26.864Z,100.00
2019-01-16T06:18:16.506Z,100.00
2019-01-16T06:21:05.663Z,100.00
2019-01-16T06:23:54.820Z,100.00
2019-01-16T06:26:44.221Z,100.00
2019-01-16T06:29:33.122Z,100.00
2019-01-16T06:32:22.964Z,100.00
2019-01-16T06:35:12.553Z,100.00
2019-01-16T06:38:01.913Z,100.00
2019-01-16T06:40:54.075Z,100.00
2019-01-16T06:43:43.622Z,100.00
2019-01-16T06:46:32.497Z,100.00
2019-01-16T06:49:21.730Z,100.00
2019-01-16T06:52:11.498Z,100.00
2019-01-16T06:55:00.567Z,100.00
2019-01-16T06:57:49.681Z,100.00
2019-01-16T07:00:39.098Z,100.00
2019-01-16T07:03:28.257Z,100.00
2019-01-16T07:06:31.563Z,99.90
2019-01-16T07:09:08.290Z,99.75
2019-01-16T07:11:57.594Z,99.49
2019-01-16T07:14:46.597Z,99.51
2019-01-16T07:17:36.020Z,99.13
2019-01-16T07:20:26.530Z,99.26
2019-01-16T07:23:15.553Z,98.94
2019-01-16T07:26:04.598Z,98.64
2019-01-16T07:28:53.692Z,98.38
2019-01-16T07:31:44.068Z,97.87
2019-01-16T07:34:21.172Z,97.74
2019-01-16T07:37:10.356Z,97.63
2019-01-16T07:39:59.503Z,97.34
2019-01-16T07:42:48.815Z,96.73
2019-01-16T07:45:39.786Z,96.20
2019-01-16T07:48:29.295Z,96.14
2019-01-16T07:51:18.649Z,95.87
2019-01-16T07:54:07.913Z,95.79
2019-01-16T07:56:57.276Z,95.30
2019-01-16T07:59:46.663Z,94.37
2019-01-16T08:02:36.193Z,94.24
2019-01-16T08:05:26.861Z,93.55
2019-01-16T08:08:16.268Z,93.25
2019-01-16T08:11:05.509Z,93.62
2019-01-16T08:13:54.954Z,93.33
2019-01-16T08:19:54.561Z,92.71
2019-01-16T08:22:42.024Z,92.73
2019-01-16T08:25:31.643Z,92.43
2019-01-16T08:28:21.146Z,92.47
2019-01-16T08:31:10.596Z,91.78
2019-01-16T08:34:08.545Z,91.60
2019-01-16T08:36:57.675Z,91.29
2019-01-16T08:39:46.913Z,90.50
2019-01-16T08:42:36.838Z,90.25
2019-01-16T08:45:29.015Z,90.00
2019-01-16T08:48:32.727Z,90.07
2019-01-16T08:51:15.337Z,90.35
2019-01-16T08:54:05.403Z,89.92
2019-01-16T08:56:54.737Z,90.10
2019-01-16T08:59:44.344Z,90.19
2019-01-16T09:02:33.307Z,89.73
2019-01-16T09:05:22.602Z,89.66
2019-01-16T09:08:11.886Z,89.42
2019-01-16T09:11:01.292Z,89.58
2019-01-16T09:13:50.386Z,89.77
2019-01-16T09:16:40.433Z,89.10
2019-01-16T09:19:31.248Z,88.53
2019-01-16T09:22:20.516Z,88.72
2019-01-16T09:25:09.242Z,88.73
2019-01-16T09:27:58.525Z,88.40
2019-01-16T09:30:47.662Z,88.76
2019-01-16T09:33:37.189Z,88.88
2019-01-16T09:36:24.351Z,88.04
2019-01-16T09:39:13.639Z,87.87
2019-01-16T09:42:02.780Z,88.08
2019-01-16T09:44:45.170Z,88.02
2019-01-16T09:47:34.695Z,86.86
2019-01-16T09:50:47.832Z,86.99
2019-01-16T09:53:34.183Z,86.99
2019-01-16T09:56:23.870Z,86.63
2019-01-16T09:59:13.693Z,85.51
2019-01-16T10:02:02.897Z,85.51
2019-01-16T10:04:52.044Z,85.84
2019-01-16T10:07:41.841Z,84.98
2019-01-16T10:10:32.071Z,84.98
2019-01-16T10:13:23.953Z,85.00
2019-01-16T10:16:13.273Z,84.48
2019-01-16T10:19:02.946Z,84.94
2019-01-16T10:21:52.471Z,84.54
2019-01-16T10:24:41.798Z,84.80
2019-01-16T10:27:31.087Z,84.59
2019-01-16T10:30:20.820Z,84.27
2019-01-16T10:33:02.292Z,83.74
2019-01-16T10:35:51.371Z,83.50
2019-01-16T10:38:40.504Z,83.04
2019-01-16T10:41:29.873Z,83.10
2019-01-16T10:44:19.047Z,82.48
2019-01-16T10:47:09.947Z,82.86
2019-01-16T10:49:59.498Z,82.47
2019-01-16T10:52:48.664Z,82.46
2019-01-16T10:58:41.419Z,81.07
2019-01-16T11:01:30.277Z,80.73
2019-01-16T11:04:19.754Z,81.40
2019-01-16T11:07:09.328Z,80.90
2019-01-16T11:09:58.414Z,81.44
2019-01-16T11:13:08.546Z,81.13
2019-01-16T11:15:57.709Z,81.21
2019-01-16T11:18:46.964Z,81.01
2019-01-16T11:21:37.404Z,81.30
2019-01-16T11:27:41.371Z,81.31
2019-01-16T11:30:33.846Z,80.27
2019-01-16T11:33:20.965Z,80.42
2019-01-16T11:36:10.411Z,79.92
2019-01-16T11:38:59.664Z,80.60
2019-01-16T11:41:49.051Z,81.11
2019-01-16T11:44:26.690Z,80.80
2019-01-16T11:47:16.986Z,80.71
2019-01-16T11:50:06.265Z,80.38
2019-01-16T11:52:49.498Z,80.74
2019-01-16T11:55:38.602Z,80.87
2019-01-16T11:58:27.550Z,80.51
2019-01-16T12:01:16.973Z,80.11
2019-01-16T12:04:06.202Z,80.16
2019-01-16T12:06:55.464Z,80.16
2019-01-16T12:09:44.560Z,80.66
2019-01-16T12:12:33.845Z,81.08
2019-01-16T12:18:32.725Z,80.22
2019-01-16T12:21:26.402Z,79.94
2019-01-16T12:24:32.074Z,80.21
2019-01-16T12:27:21.183Z,80.21
2019-01-16T12:30:01.377Z,80.42
2019-01-16T12:32:50.336Z,80.51
2019-01-16T12:35:41.213Z,80.44
2019-01-16T12:38:27.602Z,80.30
2019-01-16T12:41:16.556Z,80.31
2019-01-16T12:44:05.507Z,80.73
2019-01-16T12:46:55.037Z,80.73
2019-01-16T12:49:44.278Z,80.20
2019-01-16T12:52:33.389Z,80.83
2019-01-16T12:55:22.453Z,80.47
2019-01-16T12:58:13.545Z,80.32
2019-01-16T13:00:53.395Z,80.15
2019-01-16T13:06:44.488Z,79.84
2019-01-16T13:12:18.806Z,79.32
2019-01-16T13:14:56.477Z,79.53
2019-01-16T13:17:45.545Z,79.28
2019-01-16T13:20:26.569Z,79.28
2019-01-16T13:23:15.686Z,79.95
2019-01-16T13:26:05.115Z,80.00
2019-01-16T13:28:54.795Z,79.67
2019-01-16T13:31:45.183Z,79.45
2019-01-16T13:37:35.608Z,79.55
2019-01-16T13:40:26.342Z,79.58
2019-01-16T13:43:15.839Z,79.82
2019-01-16T13:46:05.179Z,79.42
2019-01-16T13:48:55.768Z,79.54
2019-01-16T13:51:46.384Z,79.73
2019-01-16T13:54:36.628Z,79.66
2019-01-16T13:57:26.881Z,79.73
2019-01-16T14:00:16.071Z,79.80
2019-01-16T14:03:05.213Z,79.68
2019-01-16T14:05:55.492Z,79.94
2019-01-16T14:08:44.530Z,79.76
2019-01-16T14:11:33.735Z,79.84
2019-01-16T14:14:24.357Z,79.96
2019-01-16T14:17:14.924Z,79.75
2019-01-16T14:20:04.005Z,79.53
2019-01-16T14:23:11.256Z,79.30
2019-01-16T14:26:00.617Z,79.30
2019-01-16T14:28:49.922Z,79.34
2019-01-16T14:31:40.573Z,79.18
2019-01-16T14:34:29.670Z,79.12
2019-01-16T14:37:18.578Z,79.40
2019-01-16T14:40:07.614Z,79.34
2019-01-16T14:42:56.701Z,79.23
2019-01-16T14:45:45.864Z,79.29
2019-01-16T14:48:35.449Z,79.46
2019-01-16T14:54:26.610Z,79.31
2019-01-16T14:57:15.669Z,79.14
2019-01-16T15:00:05.141Z,79.23
2019-01-16T15:02:54.452Z,79.56
2019-01-16T15:05:43.620Z,79.80
2019-01-16T15:08:32.687Z,79.94
2019-01-16T15:11:22.404Z,80.14
2019-01-16T15:14:11.403Z,79.77
2019-01-16T15:17:01.148Z,79.24
2019-01-16T15:19:50.307Z,78.78
2019-01-16T15:22:39.423Z,77.71
2019-01-16T15:25:29.008Z,77.77
2019-01-16T15:31:04.398Z,78.41
2019-01-16T15:33:55.009Z,78.51
2019-01-16T15:36:44.483Z,78.75
2019-01-16T15:39:33.617Z,79.13
2019-01-16T15:42:22.754Z,78.53
2019-01-16T15:45:11.959Z,78.79
2019-01-16T15:48:01.470Z,78.71
2019-01-16T15:50:51.084Z,78.86
2019-01-16T15:53:40.476Z,78.81
2019-01-16T16:02:38.670Z,79.36
2019-01-16T16:05:28.242Z,79.24
2019-01-16T16:08:17.845Z,79.30
2019-01-16T16:11:07.006Z,79.10
2019-01-16T16:13:50.631Z,79.17
2019-01-16T16:16:39.774Z,79.04
2019-01-16T16:19:29.415Z,79.54
2019-01-16T16:22:19.399Z,79.58
2019-01-16T16:25:09.211Z,79.29
2019-01-16T16:27:58.394Z,79.33
2019-01-16T16:30:47.446Z,78.63
2019-01-16T16:33:36.369Z,78.58
2019-01-16T16:36:25.606Z,79.20
2019-01-16T16:39:14.850Z,79.50
2019-01-16T16:42:19.620Z,79.70
2019-01-16T16:45:08.592Z,79.70
2019-01-16T16:47:57.723Z,79.47
2019-01-16T16:50:46.950Z,79.43
2019-01-16T17:01:51.855Z,79.65
2019-01-16T17:04:41.965Z,79.99
2019-01-16T17:07:31.745Z,80.21
2019-01-16T17:10:21.340Z,80.29
2019-01-16T17:13:10.693Z,80.29
2019-01-16T17:15:59.694Z,80.47
2019-01-16T17:21:44.762Z,80.20
2019-01-16T17:24:34.149Z,79.80
2019-01-16T17:30:06.717Z,79.95
2019-01-16T17:32:55.963Z,79.79
2019-01-16T17:35:45.262Z,79.54
2019-01-16T17:38:34.453Z,79.13
2019-01-16T17:41:14.475Z,79.22
2019-01-16T17:44:03.855Z,79.39
2019-01-16T17:46:53.493Z,79.38
2019-01-16T17:49:43.471Z,79.11
2019-01-16T17:55:32.366Z,79.39
2019-01-16T17:58:21.783Z,79.18
2019-01-16T18:04:11.221Z,79.29
2019-01-16T18:07:00.410Z,79.26
2019-01-16T18:09:49.505Z,79.35
2019-01-16T18:12:38.525Z,79.25
2019-01-16T18:15:29.170Z,78.95
2019-01-16T18:18:18.363Z,78.90
2019-01-16T18:21:07.506Z,78.68
2019-01-16T18:23:45.624Z,78.66
2019-01-16T18:26:26.860Z,78.03
2019-01-16T18:29:15.932Z,77.99
2019-01-16T18:32:05.293Z,77.48
2019-01-16T18:34:55.395Z,77.29
2019-01-16T18:37:44.576Z,77.23
2019-01-16T18:40:34.084Z,77.19
2019-01-16T18:43:23.741Z,77.50
2019-01-16T18:46:13.072Z,76.98
2019-01-16T18:49:03.684Z,77.01
2019-01-16T18:51:53.286Z,77.14
2019-01-16T18:54:43.895Z,77.53
2019-01-16T18:57:33.388Z,77.36
2019-01-16T19:00:22.548Z,77.40
2019-01-16T19:03:11.481Z,77.74
2019-01-16T19:06:00.489Z,77.48
2019-01-16T19:08:49.538Z,77.47
2019-01-16T19:11:38.581Z,77.80
2019-01-16T19:14:27.637Z,77.92
2019-01-16T19:17:16.770Z,78.34
2019-01-16T19:20:06.206Z,78.41
2019-01-16T19:22:58.190Z,78.43
2019-01-16T19:25:46.419Z,78.39
2019-01-16T19:28:35.475Z,78.41
2019-01-16T19:31:24.613Z,78.47
2019-01-16T19:34:13.679Z,78.89
2019-01-16T19:37:03.000Z,79.11
2019-01-16T19:39:53.229Z,78.69
2019-01-16T19:42:42.824Z,78.70
2019-01-16T19:45:31.772Z,78.70
2019-01-16T19:48:18.024Z,79.11
2019-01-16T19:51:07.908Z,79.06
2019-01-16T19:53:57.536Z,78.80
2019-01-16T19:56:46.758Z,78.79
2019-01-16T19:59:36.388Z,79.56
2019-01-16T20:05:45.473Z,79.48
2019-01-16T20:08:36.624Z,79.54
2019-01-16T20:11:25.792Z,79.51
2019-01-16T20:14:15.213Z,79.28
2019-01-16T20:17:04.619Z,79.28
2019-01-16T20:19:53.720Z,79.46
2019-01-16T20:22:43.178Z,79.22
2019-01-16T20:25:32.615Z,79.59
2019-01-16T20:28:21.877Z,79.57
2019-01-16T20:31:11.253Z,79.77
2019-01-16T20:34:20.506Z,79.85
2019-01-16T20:36:58.868Z,80.19
2019-01-16T20:39:48.269Z,79.95
2019-01-16T20:42:37.876Z,79.97
2019-01-16T20:45:27.506Z,79.93
2019-01-16T20:48:16.495Z,80.04
2019-01-16T20:51:05.803Z,79.71
2019-01-16T20:53:55.517Z,79.00
2019-01-16T20:56:44.648Z,78.96
2019-01-16T20:59:34.076Z,79.18
2019-01-16T21:02:16.151Z,79.16
2019-01-16T21:05:02.452Z,79.31
2019-01-16T21:07:51.524Z,79.39
2019-01-16T21:10:40.843Z,79.30
2019-01-16T21:13:30.179Z,79.45
2019-01-16T21:16:06.735Z,79.48
2019-01-16T21:18:49.200Z,79.20
2019-01-16T21:21:38.501Z,79.24
2019-01-16T21:24:27.739Z,79.08
2019-01-16T21:27:19.404Z,78.98
2019-01-16T21:30:08.727Z,78.72
2019-01-16T21:32:58.305Z,78.59
2019-01-16T21:35:47.888Z,77.63
2019-01-16T21:38:37.373Z,77.62
2019-01-16T21:41:26.607Z,78.08
2019-01-16T21:44:15.690Z,78.18
2019-01-16T21:47:07.627Z,78.50
2019-01-16T21:49:56.661Z,78.93
2019-01-16T21:52:45.687Z,79.15
2019-01-16T21:55:37.511Z,79.45
2019-01-16T21:58:26.557Z,79.63
2019-01-16T22:01:15.619Z,79.38
2019-01-16T22:04:03.158Z,79.74
2019-01-16T22:06:52.797Z,79.84
2019-01-16T22:09:43.652Z,79.93
2019-01-16T22:12:33.303Z,80.29
2019-01-16T22:18:06.337Z,79.94
2019-01-16T22:20:57.258Z,79.17
2019-01-16T22:23:47.756Z,78.89
2019-01-16T22:26:39.483Z,78.82
2019-01-16T22:29:28.672Z,78.91
2019-01-16T22:32:17.828Z,79.16
2019-01-16T22:35:07.087Z,79.45
2019-01-16T22:37:56.525Z,79.95
2019-01-16T22:40:45.640Z,80.04
2019-01-16T22:43:34.556Z,80.17
2019-01-16T22:46:23.701Z,80.13
2019-01-16T22:49:12.880Z,79.92
2019-01-16T22:52:02.339Z,79.54
2019-01-16T22:54:52.384Z,79.41
2019-01-16T22:57:41.657Z,79.29
2019-01-16T23:03:46.553Z,80.18
2019-01-16T23:06:35.542Z,80.07
2019-01-16T23:12:26.744Z,79.95
2019-01-16T23:15:16.112Z,80.09
2019-01-16T23:18:05.252Z,80.06
2019-01-16T23:20:54.410Z,79.94
2019-01-16T23:23:49.633Z,80.04
2019-01-16T23:26:34.632Z,80.02
2019-01-16T23:29:25.076Z,80.29
2019-01-16T23:32:14.291Z,80.45
2019-01-16T23:35:03.379Z,80.78
2019-01-16T23:38:11.545Z,80.62
2019-01-16T23:41:00.558Z,80.62
2019-01-16T23:43:51.782Z,80.61
2019-01-16T23:46:41.585Z,80.64
2019-01-16T23:49:30.715Z,80.42
2019-01-16T23:52:11.017Z,80.47
2019-01-16T23:55:00.170Z,80.46
2019-01-16T23:57:49.302Z,80.18
